createdAt,value
2022-10-01T00:01:34.919Z,13.03
2022-10-01T00:03:37.469Z,13.04
2022-10-01T00:05:39.774Z,13.05
2022-10-01T00:07:45.611Z,13.09
2022-10-01T00:09:47.795Z,13.04
2022-10-01T00:11:49.904Z,13.12
2022-10-01T00:13:53.139Z,13.13
2022-10-01T00:15:55.662Z,13.11
2022-10-01T00:17:58.290Z,13.14
2022-10-01T00:20:00.530Z,13.13
2022-10-01T00:22:02.685Z,13.09
2022-10-01T00:24:05.277Z,13.11
2022-10-01T00:26:15.631Z,13.12
2022-10-01T00:28:17.883Z,13.06
2022-10-01T00:30:20.029Z,13.14
2022-10-01T00:32:22.018Z,13.13
2022-10-01T00:34:25.084Z,13.05
2022-10-01T00:36:27.635Z,13.01
2022-10-01T00:38:30.235Z,13.01
2022-10-01T00:40:32.369Z,13.12
2022-10-01T00:42:34.647Z,13.08
2022-10-01T00:44:37.734Z,13.11
2022-10-01T00:46:43.610Z,13.07
2022-10-01T00:49:11.406Z,13.13
2022-10-01T00:51:14.100Z,13.08
2022-10-01T00:53:18.566Z,13.07
2022-10-01T00:55:27.002Z,13.03
2022-10-01T00:57:29.676Z,13.07
2022-10-01T00:59:32.153Z,13.12
2022-10-01T01:01:37.585Z,13.06
2022-10-01T01:03:40.048Z,13.06
2022-10-01T01:05:42.202Z,12.97
2022-10-01T01:07:45.973Z,12.93
2022-10-01T01:09:51.090Z,12.89
2022-10-01T01:12:14.633Z,12.94
2022-10-01T01:14:25.786Z,12.99
2022-10-01T01:16:48.227Z,13.00
2022-10-01T01:19:00.852Z,12.95
2022-10-01T01:21:30.380Z,12.89
2022-10-01T01:24:05.394Z,12.84
2022-10-01T01:26:22.797Z,12.86
2022-10-01T01:28:39.063Z,12.85
2022-10-01T01:30:41.682Z,12.80
2022-10-01T01:33:03.377Z,12.82
2022-10-01T01:35:08.746Z,12.79
2022-10-01T01:37:15.850Z,12.72
2022-10-01T01:39:20.655Z,12.78
2022-10-01T01:41:27.585Z,12.69
2022-10-01T01:43:33.499Z,12.77
2022-10-01T01:45:40.117Z,12.83
2022-10-01T01:47:43.946Z,12.84
2022-10-01T01:49:46.828Z,12.86
2022-10-01T01:51:56.266Z,12.82
2022-10-01T01:53:58.990Z,12.82
2022-10-01T01:56:02.803Z,12.81
2022-10-01T01:58:04.906Z,12.79
2022-10-01T02:00:08.908Z,12.80
2022-10-01T02:02:23.661Z,12.84
2022-10-01T02:04:36.236Z,12.82
2022-10-01T02:06:54.082Z,12.88
2022-10-01T02:09:28.730Z,12.89
2022-10-01T02:11:40.344Z,12.88
2022-10-01T02:13:50.582Z,12.84
2022-10-01T02:16:04.635Z,12.90
2022-10-01T02:18:30.362Z,12.90
2022-10-01T02:20:39.800Z,12.92
2022-10-01T02:23:03.808Z,12.89
2022-10-01T02:25:08.740Z,12.79
2022-10-01T02:27:35.815Z,12.81
2022-10-01T02:29:40.370Z,12.76
2022-10-01T02:31:42.728Z,12.69
2022-10-01T02:33:47.053Z,12.69
2022-10-01T02:35:53.107Z,12.70
2022-10-01T02:37:56.824Z,12.70
2022-10-01T02:40:01.846Z,12.64
2022-10-01T02:42:08.034Z,12.65
2022-10-01T02:44:16.037Z,12.65
2022-10-01T02:46:28.510Z,12.62
2022-10-01T02:48:30.523Z,12.58
2022-10-01T02:50:41.883Z,12.55
2022-10-01T02:52:52.960Z,12.55
2022-10-01T02:55:32.399Z,12.55
2022-10-01T02:57:34.868Z,12.50
2022-10-01T02:59:36.993Z,12.54
2022-10-01T03:01:39.585Z,12.56
2022-10-01T03:03:43.164Z,12.59
2022-10-01T03:05:45.242Z,12.56
2022-10-01T03:07:48.207Z,12.57
2022-10-01T03:09:51.165Z,12.58
2022-10-01T03:11:53.243Z,12.55
2022-10-01T03:13:55.451Z,12.55
2022-10-01T03:15:57.530Z,12.54
2022-10-01T03:17:59.537Z,12.53
2022-10-01T03:20:01.922Z,12.50
2022-10-01T03:22:05.764Z,12.54
2022-10-01T03:24:07.672Z,12.56
2022-10-01T03:26:09.867Z,12.58
2022-10-01T03:28:13.571Z,12.67
2022-10-01T03:30:15.821Z,12.65
2022-10-01T03:32:19.053Z,12.75
2022-10-01T03:34:21.798Z,12.75
2022-10-01T03:36:23.943Z,12.73
2022-10-01T03:38:26.036Z,12.78
2022-10-01T03:40:28.969Z,12.74
2022-10-01T03:42:30.990Z,12.74
2022-10-01T03:44:33.901Z,12.77
2022-10-01T03:46:36.034Z,12.77
2022-10-01T03:48:38.437Z,12.79
2022-10-01T03:50:40.614Z,12.80
2022-10-01T03:52:42.935Z,12.80
2022-10-01T03:54:45.166Z,12.86
2022-10-01T03:56:48.582Z,12.86
2022-10-01T03:58:51.108Z,12.92
2022-10-01T04:00:55.345Z,12.94
2022-10-01T04:02:58.318Z,12.96
2022-10-01T04:05:02.780Z,12.92
2022-10-01T04:07:07.919Z,12.90
2022-10-01T04:09:10.067Z,12.84
2022-10-01T04:11:12.424Z,12.91
2022-10-01T04:13:15.401Z,12.93
2022-10-01T04:15:17.589Z,12.94
2022-10-01T04:17:20.552Z,12.95
2022-10-01T04:19:22.553Z,12.91
2022-10-01T04:21:24.586Z,12.90
2022-10-01T04:23:27.067Z,12.92
2022-10-01T04:25:30.510Z,12.90
2022-10-01T04:27:32.541Z,12.91
2022-10-01T04:29:39.360Z,12.93
2022-10-01T04:31:42.446Z,12.98
2022-10-01T04:33:44.995Z,12.98
2022-10-01T04:35:47.150Z,12.98
2022-10-01T04:37:59.394Z,12.95
2022-10-01T04:40:01.865Z,12.91
2022-10-01T04:42:05.499Z,12.94
2022-10-01T04:44:07.615Z,12.94
2022-10-01T04:46:09.704Z,12.92
2022-10-01T04:48:11.930Z,12.92
2022-10-01T04:50:15.906Z,13.01
2022-10-01T04:52:21.642Z,13.03
2022-10-01T04:54:23.600Z,13.00
2022-10-01T04:56:25.631Z,12.98
2022-10-01T04:58:28.279Z,12.98
2022-10-01T05:00:30.462Z,12.99
2022-10-01T05:02:34.722Z,12.99
2022-10-01T05:04:36.904Z,12.99
2022-10-01T05:06:39.046Z,12.99
2022-10-01T05:08:41.113Z,13.02
2022-10-01T05:10:44.493Z,12.94
2022-10-01T05:12:47.936Z,12.98
2022-10-01T05:14:51.173Z,12.96
2022-10-01T05:16:53.360Z,12.91
2022-10-01T05:18:55.410Z,12.89
2022-10-01T05:20:57.599Z,12.93
2022-10-01T05:22:59.766Z,12.98
2022-10-01T05:25:02.384Z,12.97
2022-10-01T05:27:04.973Z,12.92
2022-10-01T05:29:07.121Z,12.98
2022-10-01T05:31:09.445Z,12.97
2022-10-01T05:33:11.709Z,13.04
2022-10-01T05:35:13.797Z,13.10
2022-10-01T05:37:16.131Z,13.02
2022-10-01T05:39:18.334Z,13.11
2022-10-01T05:41:20.492Z,13.08
2022-10-01T05:43:22.610Z,13.11
2022-10-01T05:45:25.512Z,13.18
2022-10-01T05:47:27.711Z,13.17
2022-10-01T05:49:29.795Z,13.18
2022-10-01T05:51:32.041Z,13.14
2022-10-01T05:53:37.788Z,13.17
2022-10-01T05:55:40.471Z,13.17
2022-10-01T05:57:42.523Z,13.17
2022-10-01T05:59:44.616Z,13.22
2022-10-01T06:01:46.750Z,13.22
2022-10-01T06:03:53.978Z,13.17
2022-10-01T06:05:56.370Z,13.14
2022-10-01T06:07:59.052Z,13.16
2022-10-01T06:10:01.161Z,13.17
2022-10-01T06:12:08.711Z,13.20
2022-10-01T06:14:10.834Z,13.25
2022-10-01T06:16:14.238Z,13.30
2022-10-01T06:18:16.477Z,13.35
2022-10-01T06:20:19.716Z,13.41
2022-10-01T06:22:22.254Z,13.52
2022-10-01T06:24:24.332Z,13.58
2022-10-01T06:26:26.566Z,13.60
2022-10-01T06:28:28.689Z,13.70
2022-10-01T06:30:32.021Z,13.75
2022-10-01T06:32:35.285Z,13.76
2022-10-01T06:34:37.488Z,13.81
2022-10-01T06:36:39.475Z,13.86
2022-10-01T06:38:43.069Z,13.87
2022-10-01T06:40:45.191Z,13.86
2022-10-01T06:42:55.999Z,13.92
2022-10-01T06:44:59.196Z,13.94
2022-10-01T06:47:01.475Z,13.95
2022-10-01T06:49:03.659Z,13.94
2022-10-01T06:51:06.298Z,14.01
2022-10-01T06:53:08.409Z,14.05
2022-10-01T06:55:15.697Z,14.18
2022-10-01T06:57:18.729Z,14.25
2022-10-01T06:59:21.375Z,14.30
2022-10-01T07:01:23.448Z,14.39
2022-10-01T07:03:26.155Z,14.41
2022-10-01T07:05:28.465Z,14.40
2022-10-01T07:07:32.348Z,14.41
2022-10-01T07:09:34.606Z,14.38
2022-10-01T07:11:41.349Z,14.41
2022-10-01T07:13:43.523Z,14.43
2022-10-01T07:15:46.176Z,14.48
2022-10-01T07:17:50.671Z,14.48
2022-10-01T07:19:52.848Z,14.46
2022-10-01T07:21:54.827Z,14.46
2022-10-01T07:23:56.929Z,14.42
2022-10-01T07:25:59.621Z,14.40
2022-10-01T07:28:06.017Z,14.44
2022-10-01T07:30:08.793Z,14.43
2022-10-01T07:32:11.027Z,14.29
2022-10-01T07:34:13.118Z,14.47
2022-10-01T07:36:15.386Z,14.48
2022-10-01T07:38:17.446Z,14.50
2022-10-01T07:40:19.874Z,14.56
2022-10-01T07:42:22.044Z,14.57
2022-10-01T07:44:24.153Z,14.49
2022-10-01T07:46:26.278Z,14.45
2022-10-01T07:48:28.682Z,14.44
2022-10-01T07:50:30.962Z,14.42
2022-10-01T07:52:33.241Z,14.46
2022-10-01T07:54:35.228Z,14.55
2022-10-01T07:56:37.870Z,14.55
2022-10-01T07:58:40.137Z,14.68
2022-10-01T08:00:43.633Z,14.81
2022-10-01T08:02:50.904Z,15.00
2022-10-01T08:05:11.789Z,15.12
2022-10-01T08:07:15.440Z,15.26
2022-10-01T08:09:17.781Z,15.31
2022-10-01T08:11:20.307Z,15.49
2022-10-01T08:13:25.106Z,15.57
2022-10-01T08:15:28.304Z,15.71
2022-10-01T08:17:30.790Z,15.70
2022-10-01T08:19:32.868Z,15.78
2022-10-01T08:21:37.885Z,15.99
2022-10-01T08:23:39.925Z,16.04
2022-10-01T08:25:42.755Z,16.05
2022-10-01T08:27:44.865Z,16.12
2022-10-01T08:29:46.958Z,16.26
2022-10-01T08:31:49.416Z,16.33
2022-10-01T08:33:52.378Z,16.43
2022-10-01T08:35:54.508Z,16.50
2022-10-01T08:38:04.887Z,16.47
2022-10-01T08:40:07.838Z,16.44
2022-10-01T08:42:34.637Z,16.30
2022-10-01T08:44:41.408Z,16.25
2022-10-01T08:46:44.010Z,16.09
2022-10-01T08:49:21.332Z,16.05
2022-10-01T08:51:39.496Z,16.00
2022-10-01T08:53:56.074Z,15.86
2022-10-01T08:56:00.494Z,15.77
2022-10-01T08:58:11.054Z,15.64
2022-10-01T09:00:18.743Z,15.53
2022-10-01T09:02:20.963Z,15.38
2022-10-01T09:04:24.078Z,15.19
2022-10-01T09:06:27.818Z,15.12
2022-10-01T09:08:43.892Z,15.11
2022-10-01T09:11:07.702Z,15.03
2022-10-01T09:13:13.531Z,15.05
2022-10-01T09:15:33.008Z,15.05
2022-10-01T09:17:47.116Z,15.04
2022-10-01T09:20:11.415Z,15.02
2022-10-01T09:22:26.306Z,15.02
2022-10-01T09:24:40.093Z,14.98
2022-10-01T09:26:48.955Z,14.92
2022-10-01T09:28:54.958Z,14.99
2022-10-01T09:31:00.810Z,15.02
2022-10-01T09:33:13.380Z,15.09
2022-10-01T09:35:35.022Z,15.14
2022-10-01T09:37:49.098Z,15.18
2022-10-01T09:40:32.487Z,15.04
2022-10-01T09:42:35.032Z,14.96
2022-10-01T09:44:37.853Z,14.84
2022-10-01T09:46:40.038Z,14.86
2022-10-01T09:48:54.451Z,14.83
2022-10-01T09:51:18.643Z,14.72
2022-10-01T09:53:26.609Z,14.59
2022-10-01T09:55:39.020Z,14.57
2022-10-01T09:57:46.387Z,14.65
2022-10-01T10:00:10.571Z,14.75
2022-10-01T10:02:36.690Z,14.88
2022-10-01T10:04:39.377Z,14.97
2022-10-01T10:06:43.952Z,15.09
2022-10-01T10:08:46.172Z,15.16
2022-10-01T10:10:54.751Z,15.23
2022-10-01T10:13:10.985Z,15.34
2022-10-01T10:15:18.822Z,15.43
2022-10-01T10:17:22.255Z,15.42
2022-10-01T10:19:27.580Z,15.57
2022-10-01T10:21:32.303Z,15.58
2022-10-01T10:23:34.776Z,15.50
2022-10-01T10:25:36.933Z,15.49
2022-10-01T10:27:38.999Z,15.47
2022-10-01T10:29:43.488Z,15.51
2022-10-01T10:31:46.592Z,15.50
2022-10-01T10:34:19.495Z,15.49
2022-10-01T10:36:29.034Z,15.50
2022-10-01T10:38:35.175Z,15.54
2022-10-01T10:40:43.042Z,15.57
2022-10-01T10:42:54.315Z,15.50
2022-10-01T10:45:03.664Z,15.66
2022-10-01T10:47:12.072Z,15.67
2022-10-01T10:49:30.212Z,15.68
2022-10-01T10:51:56.396Z,15.77
2022-10-01T10:54:01.346Z,15.73
2022-10-01T10:56:06.551Z,15.75
2022-10-01T10:58:15.198Z,15.76
2022-10-01T11:00:21.100Z,15.75
2022-10-01T11:02:25.608Z,15.75
2022-10-01T11:04:43.455Z,15.74
2022-10-01T11:06:55.789Z,15.71
2022-10-01T11:09:07.285Z,15.62
2022-10-01T11:11:37.464Z,15.76
2022-10-01T11:14:05.735Z,15.93
2022-10-01T11:16:20.423Z,16.22
2022-10-01T11:18:34.013Z,16.44
2022-10-01T11:20:52.111Z,16.65
2022-10-01T11:23:00.099Z,16.93
2022-10-01T11:25:32.578Z,17.08
2022-10-01T11:27:49.874Z,17.19
2022-10-01T11:30:23.210Z,17.26
2022-10-01T11:32:38.444Z,17.20
2022-10-01T11:34:57.248Z,17.21
2022-10-01T11:37:25.209Z,17.16
2022-10-01T11:39:30.936Z,17.06
2022-10-01T11:41:44.925Z,16.91
2022-10-01T11:43:56.660Z,16.80
2022-10-01T11:46:13.367Z,16.71
2022-10-01T11:48:35.743Z,16.54
2022-10-01T11:50:43.236Z,16.51
2022-10-01T11:52:59.223Z,16.44
2022-10-01T11:55:29.767Z,16.32
2022-10-01T11:57:50.809Z,16.15
2022-10-01T12:00:15.902Z,15.98
2022-10-01T12:02:21.174Z,15.86
2022-10-01T12:04:35.021Z,15.81
2022-10-01T12:06:53.946Z,15.76
2022-10-01T12:09:08.760Z,15.76
2022-10-01T12:11:21.003Z,15.83
2022-10-01T12:13:32.892Z,15.88
2022-10-01T12:15:55.120Z,15.95
2022-10-01T12:18:32.812Z,16.03
2022-10-01T12:20:50.871Z,16.14
2022-10-01T12:22:54.885Z,16.30
2022-10-01T12:24:57.374Z,16.40
2022-10-01T12:27:24.198Z,16.71
2022-10-01T12:29:43.167Z,16.84
2022-10-01T12:32:04.378Z,16.75
2022-10-01T12:35:00.806Z,17.02
2022-10-01T12:37:30.402Z,17.19
2022-10-01T12:40:12.287Z,17.29
2022-10-01T12:42:14.474Z,17.52
2022-10-01T12:44:31.045Z,17.60
2022-10-01T12:47:11.542Z,17.55
2022-10-01T12:49:23.621Z,17.50
2022-10-01T12:51:40.400Z,17.47
2022-10-01T12:54:13.434Z,17.49
2022-10-01T12:56:31.059Z,17.51
2022-10-01T12:59:04.166Z,17.53
2022-10-01T13:01:30.129Z,17.51
2022-10-01T13:03:37.537Z,17.48
2022-10-01T13:06:08.175Z,17.43
2022-10-01T13:08:29.055Z,17.30
2022-10-01T13:10:53.886Z,17.18
2022-10-01T13:13:18.069Z,17.07
2022-10-01T13:15:29.973Z,16.90
2022-10-01T13:17:42.719Z,16.77
2022-10-01T13:20:15.807Z,16.65
2022-10-01T13:22:21.648Z,16.43
2022-10-01T13:24:40.990Z,16.24
2022-10-01T13:26:59.978Z,16.09
2022-10-01T13:29:35.440Z,15.98
2022-10-01T13:31:57.057Z,15.85
2022-10-01T13:34:01.237Z,15.67
2022-10-01T13:36:08.368Z,15.67
2022-10-01T13:38:15.582Z,15.67
2022-10-01T13:40:30.560Z,15.65
2022-10-01T13:43:16.354Z,15.63
2022-10-01T13:45:44.267Z,15.64
2022-10-01T13:47:47.276Z,15.59
2022-10-01T13:50:23.936Z,15.65
2022-10-01T13:52:26.677Z,15.61
2022-10-01T13:54:37.709Z,15.58
2022-10-01T13:56:39.908Z,15.56
2022-10-01T13:58:44.346Z,15.54
2022-10-01T14:00:53.613Z,15.55
2022-10-01T14:03:22.557Z,15.47
2022-10-01T14:05:43.189Z,15.41
2022-10-01T14:07:47.892Z,15.32
2022-10-01T14:09:54.398Z,15.31
2022-10-01T14:12:22.707Z,15.32
2022-10-01T14:15:03.894Z,15.32
2022-10-01T14:17:08.657Z,15.31
2022-10-01T14:19:19.826Z,15.29
2022-10-01T14:21:41.582Z,15.28
2022-10-01T14:24:08.170Z,15.13
2022-10-01T14:26:33.599Z,15.14
2022-10-01T14:29:05.864Z,15.14
2022-10-01T14:31:35.879Z,15.04
2022-10-01T14:33:47.025Z,15.02
2022-10-01T14:36:23.320Z,14.97
2022-10-01T14:38:25.807Z,14.87
2022-10-01T14:40:37.244Z,14.83
2022-10-01T14:42:39.323Z,14.73
2022-10-01T14:44:44.331Z,14.67
2022-10-01T14:46:46.516Z,14.60
2022-10-01T14:48:56.497Z,14.50
2022-10-01T14:51:01.837Z,14.34
2022-10-01T14:53:06.542Z,14.33
2022-10-01T14:55:13.885Z,14.22
2022-10-01T14:57:28.445Z,14.17
2022-10-01T14:59:35.608Z,14.06
2022-10-01T15:01:37.836Z,14.00
2022-10-01T15:03:41.969Z,13.91
2022-10-01T15:05:46.843Z,13.79
2022-10-01T15:07:49.098Z,13.79
2022-10-01T15:09:51.467Z,13.73
2022-10-01T15:11:53.703Z,13.70
2022-10-01T15:14:05.296Z,13.47
2022-10-01T15:16:19.043Z,13.56
2022-10-01T15:18:22.918Z,13.59
2022-10-01T15:20:25.427Z,13.53
2022-10-01T15:22:30.244Z,13.51
2022-10-01T15:24:38.194Z,13.51
2022-10-01T15:26:40.527Z,13.48
2022-10-01T15:28:44.555Z,13.45
2022-10-01T15:30:46.920Z,13.38
2022-10-01T15:32:49.786Z,13.40
2022-10-01T15:34:58.014Z,13.35
2022-10-01T15:37:01.305Z,13.30
2022-10-01T15:39:33.972Z,13.28
2022-10-01T15:41:37.992Z,13.35
2022-10-01T15:43:42.356Z,13.36
2022-10-01T15:45:44.489Z,13.34
2022-10-01T15:47:52.293Z,13.39
2022-10-01T15:50:12.856Z,13.42
2022-10-01T15:52:35.463Z,13.34
2022-10-01T15:54:43.179Z,13.34
2022-10-01T15:56:48.725Z,13.43
2022-10-01T15:58:54.685Z,13.42
2022-10-01T16:01:09.757Z,13.43
2022-10-01T16:03:23.406Z,13.43
2022-10-01T16:05:44.918Z,13.47
2022-10-01T16:07:54.776Z,13.54
2022-10-01T16:09:59.238Z,13.57
2022-10-01T16:12:18.823Z,13.64
2022-10-01T16:14:27.922Z,13.70
2022-10-01T16:16:30.335Z,13.74
2022-10-01T16:18:34.882Z,13.74
2022-10-01T16:20:43.371Z,13.82
2022-10-01T16:22:47.952Z,13.84
2022-10-01T16:24:51.378Z,13.86
2022-10-01T16:27:00.560Z,13.84
2022-10-01T16:29:02.774Z,13.93
2022-10-01T16:31:05.034Z,13.91
2022-10-01T16:33:10.562Z,13.91
2022-10-01T16:35:18.822Z,13.95
2022-10-01T16:37:20.952Z,13.89
2022-10-01T16:39:24.622Z,13.95
2022-10-01T16:41:27.479Z,13.98
2022-10-01T16:43:31.357Z,13.96
2022-10-01T16:45:42.869Z,13.96
2022-10-01T16:47:46.793Z,13.97
2022-10-01T16:49:51.659Z,14.03
2022-10-01T16:51:55.620Z,14.03
2022-10-01T16:53:59.786Z,14.09
2022-10-01T16:56:04.638Z,14.11
2022-10-01T16:58:07.008Z,14.14
2022-10-01T17:00:10.536Z,14.15
2022-10-01T17:02:14.404Z,14.14
2022-10-01T17:04:16.752Z,14.18
2022-10-01T17:06:18.919Z,14.16
2022-10-01T17:08:24.274Z,14.14
2022-10-01T17:10:29.298Z,14.11
2022-10-01T17:12:31.839Z,14.14
2022-10-01T17:14:33.919Z,14.10
2022-10-01T17:16:36.506Z,14.10
2022-10-01T17:18:43.830Z,14.05
2022-10-01T17:20:46.532Z,14.09
2022-10-01T17:22:49.469Z,14.01
2022-10-01T17:24:53.092Z,14.05
2022-10-01T17:26:56.107Z,13.89
2022-10-01T17:28:58.588Z,14.03
2022-10-01T17:31:00.716Z,14.06
2022-10-01T17:33:03.020Z,13.99
2022-10-01T17:35:09.240Z,14.00
2022-10-01T17:37:11.810Z,14.01
2022-10-01T17:39:14.055Z,13.98
2022-10-01T17:41:16.216Z,13.92
2022-10-01T17:43:18.627Z,14.00
2022-10-01T17:45:20.856Z,13.91
2022-10-01T17:47:22.903Z,13.97
2022-10-01T17:49:25.027Z,13.96
2022-10-01T17:51:27.222Z,13.97
2022-10-01T17:53:34.188Z,13.96
2022-10-01T17:55:42.123Z,13.98
2022-10-01T17:57:44.395Z,13.98
2022-10-01T17:59:46.444Z,13.95
2022-10-01T18:01:49.029Z,13.97
2022-10-01T18:04:00.436Z,13.96
2022-10-01T18:06:03.419Z,14.00
2022-10-01T18:08:05.523Z,13.92
2022-10-01T18:10:11.999Z,14.01
2022-10-01T18:12:15.044Z,14.00
2022-10-01T18:14:17.149Z,14.01
2022-10-01T18:16:19.916Z,14.02
2022-10-01T18:20:44.183Z,13.99
2022-10-01T18:22:46.273Z,13.99
2022-10-01T18:24:48.565Z,13.93
2022-10-01T18:26:51.768Z,13.89
2022-10-01T18:29:07.875Z,13.92
2022-10-01T18:31:13.590Z,13.93
2022-10-01T18:33:15.778Z,13.86
2022-10-01T18:35:28.327Z,13.98
2022-10-01T18:37:45.728Z,13.99
2022-10-01T18:39:55.125Z,13.98
2022-10-01T18:41:58.346Z,14.03
2022-10-01T18:44:04.645Z,14.00
2022-10-01T18:46:25.562Z,14.05
2022-10-01T18:48:43.001Z,13.98
2022-10-01T18:51:05.348Z,13.98
2022-10-01T18:53:32.864Z,14.01
2022-10-01T18:55:37.997Z,14.09
2022-10-01T18:58:00.484Z,14.11
2022-10-01T19:00:27.158Z,14.15
2022-10-01T19:02:41.243Z,14.16
2022-10-01T19:04:51.597Z,14.16
2022-10-01T19:07:35.173Z,14.12
2022-10-01T19:09:43.410Z,14.16
2022-10-01T19:11:54.544Z,14.15
2022-10-01T19:13:59.357Z,14.14
2022-10-01T19:16:01.381Z,14.11
2022-10-01T19:18:29.114Z,14.10
2022-10-01T19:20:45.946Z,14.07
2022-10-01T19:22:48.278Z,14.05
2022-10-01T19:25:15.008Z,14.01
2022-10-01T19:27:35.363Z,13.96
2022-10-01T19:29:49.587Z,13.92
2022-10-01T19:31:57.810Z,13.85
2022-10-01T19:34:23.586Z,13.84
2022-10-01T19:36:34.412Z,13.73
2022-10-01T19:38:42.625Z,13.66
2022-10-01T19:40:55.922Z,13.68
2022-10-01T19:43:22.953Z,13.63
2022-10-01T19:45:43.869Z,13.63
2022-10-01T19:48:00.244Z,13.59
2022-10-01T19:50:26.808Z,13.57
2022-10-01T19:52:33.180Z,13.52
2022-10-01T19:54:42.196Z,13.43
2022-10-01T19:56:51.022Z,13.45
2022-10-01T19:58:53.930Z,13.41
2022-10-01T20:00:57.845Z,13.42
2022-10-01T20:03:19.201Z,13.41
2022-10-01T20:05:25.900Z,13.36
2022-10-01T20:07:34.676Z,13.32
2022-10-01T20:10:05.246Z,13.28
2022-10-01T20:12:29.087Z,13.22
2022-10-01T20:15:21.133Z,13.25
2022-10-01T20:17:44.982Z,13.22
2022-10-01T20:19:58.438Z,13.22
2022-10-01T20:22:07.748Z,13.12
2022-10-01T20:24:18.970Z,12.99
2022-10-01T20:26:35.810Z,13.18
2022-10-01T20:28:52.467Z,13.16
2022-10-01T20:31:05.003Z,13.14
2022-10-01T20:33:20.365Z,13.15
2022-10-01T20:35:53.635Z,13.17
2022-10-01T20:38:06.950Z,13.14
2022-10-01T20:40:25.333Z,13.24
2022-10-01T20:42:45.049Z,13.27
2022-10-01T20:44:47.746Z,13.31
2022-10-01T20:46:59.314Z,13.33
2022-10-01T20:49:06.944Z,13.32
2022-10-01T20:51:17.861Z,13.35
2022-10-01T20:53:25.236Z,13.37
2022-10-01T20:55:39.104Z,13.40
2022-10-01T20:57:50.734Z,13.42
2022-10-01T20:59:55.569Z,13.46
2022-10-01T21:02:22.461Z,13.48
2022-10-01T21:04:32.883Z,13.46
2022-10-01T21:06:41.319Z,13.48
2022-10-01T21:08:51.840Z,13.50
2022-10-01T21:10:59.808Z,13.49
2022-10-01T21:13:47.337Z,13.48
2022-10-01T21:16:14.464Z,13.44
2022-10-01T21:18:43.007Z,13.47
2022-10-01T21:20:56.780Z,13.41
2022-10-01T21:23:49.365Z,13.45
2022-10-01T21:26:03.217Z,13.44
2022-10-01T21:28:29.770Z,13.46
2022-10-01T21:30:53.723Z,13.46
2022-10-01T21:33:02.593Z,13.45
2022-10-01T21:35:21.669Z,13.46
2022-10-01T21:37:40.899Z,13.46
2022-10-01T21:40:20.495Z,13.46
2022-10-01T21:42:53.232Z,13.44
2022-10-01T21:45:22.378Z,13.43
2022-10-01T21:47:41.016Z,13.41
2022-10-01T21:50:19.190Z,13.41
2022-10-01T21:52:52.112Z,13.34
2022-10-01T21:55:07.120Z,13.35
2022-10-01T21:57:16.716Z,13.36
2022-10-01T21:59:30.788Z,13.36
2022-10-01T22:02:03.485Z,13.35
2022-10-01T22:04:20.255Z,13.28
2022-10-01T22:06:42.287Z,13.28
2022-10-01T22:09:07.903Z,13.26
2022-10-01T22:11:21.483Z,13.31
2022-10-01T22:13:28.681Z,13.26
2022-10-01T22:15:41.120Z,13.31
2022-10-01T22:17:46.399Z,13.32
2022-10-01T22:19:52.751Z,13.27
2022-10-01T22:22:30.136Z,13.32
2022-10-01T22:24:39.723Z,13.24
2022-10-01T22:26:53.982Z,13.26
2022-10-01T22:28:57.020Z,13.21
2022-10-01T22:31:01.000Z,13.21
2022-10-01T22:33:12.497Z,13.21
2022-10-01T22:35:25.459Z,13.20
2022-10-01T22:37:45.920Z,13.11
2022-10-01T22:39:57.226Z,13.06
2022-10-01T22:42:03.273Z,12.94
2022-10-01T22:44:16.447Z,12.85
2022-10-01T22:46:37.739Z,12.77
2022-10-01T22:48:52.841Z,12.68
2022-10-01T22:51:38.912Z,12.58
2022-10-01T22:53:52.568Z,12.55
2022-10-01T22:55:57.024Z,12.48
2022-10-01T22:58:32.818Z,12.40
2022-10-01T23:00:44.707Z,12.34
2022-10-01T23:03:21.274Z,12.46
2022-10-01T23:05:46.052Z,12.36
2022-10-01T23:08:10.032Z,12.31
2022-10-01T23:10:44.416Z,12.21
2022-10-01T23:13:11.421Z,12.09
2022-10-01T23:15:21.581Z,12.01
2022-10-01T23:17:45.627Z,11.91
2022-10-01T23:20:29.790Z,11.63
2022-10-01T23:22:43.888Z,11.74
2022-10-01T23:25:06.688Z,11.53
2022-10-01T23:27:25.959Z,11.49
2022-10-01T23:30:04.290Z,11.27
2022-10-01T23:32:17.482Z,11.11
2022-10-01T23:34:22.610Z,11.12
2022-10-01T23:36:53.689Z,11.05
2022-10-01T23:39:08.331Z,10.90
2022-10-01T23:41:35.397Z,10.87
2022-10-01T23:44:03.447Z,10.78
2022-10-01T23:46:14.199Z,10.73
2022-10-01T23:48:42.641Z,10.65
2022-10-01T23:50:53.675Z,10.58
2022-10-01T23:53:05.073Z,10.57
2022-10-01T23:55:42.180Z,10.56
2022-10-01T23:57:45.206Z,10.49
2022-10-01T23:59:57.740Z,10.58
